createdAt,value
2023-03-07T00:01:22.141Z,8.02
2023-03-07T00:03:49.882Z,11.45
2023-03-07T00:06:17.568Z,15.18
2023-03-07T00:08:45.376Z,12.00
2023-03-07T00:11:14.345Z,9.65
2023-03-07T00:13:42.018Z,8.55
2023-03-07T00:16:11.896Z,11.30
2023-03-07T00:18:39.636Z,9.93
2023-03-07T00:21:08.181Z,11.07
2023-03-07T00:23:36.297Z,15.85
2023-03-07T00:26:04.934Z,9.43
2023-03-07T00:28:33.989Z,13.85
2023-03-07T00:31:02.447Z,17.42
2023-03-07T00:33:30.366Z,17.73
2023-03-07T00:35:59.117Z,13.45
2023-03-07T00:38:26.829Z,13.45
2023-03-07T00:40:58.322Z,15.88
2023-03-07T00:43:25.941Z,16.90
2023-03-07T00:45:54.981Z,16.73
2023-03-07T00:48:23.415Z,13.27
2023-03-07T00:50:51.171Z,12.82
2023-03-07T00:53:19.181Z,16.42
2023-03-07T00:55:54.446Z,15.85
2023-03-07T00:58:22.062Z,14.57
2023-03-07T01:00:49.904Z,16.25
2023-03-07T01:03:19.397Z,15.70
2023-03-07T01:05:47.208Z,16.38
2023-03-07T01:08:15.260Z,13.68
2023-03-07T01:10:43.252Z,15.15
2023-03-07T01:13:11.454Z,14.63
2023-03-07T01:15:39.842Z,16.85
2023-03-07T01:18:08.306Z,15.35
2023-03-07T01:20:38.125Z,16.02
2023-03-07T01:23:06.590Z,15.52
2023-03-07T01:25:38.304Z,13.88
2023-03-07T01:28:06.053Z,15.50
2023-03-07T01:30:33.845Z,19.10
2023-03-07T01:33:02.202Z,12.82
2023-03-07T01:35:30.153Z,9.55
2023-03-07T01:37:59.241Z,17.10
2023-03-07T01:40:27.270Z,14.73
2023-03-07T01:42:55.036Z,18.73
2023-03-07T01:45:41.067Z,14.93
2023-03-07T01:48:08.735Z,18.48
2023-03-07T01:50:36.518Z,19.15
2023-03-07T01:53:05.744Z,16.85
2023-03-07T01:55:34.857Z,16.63
2023-03-07T01:58:05.402Z,18.42
2023-03-07T02:00:36.278Z,16.88
2023-03-07T02:03:07.839Z,16.60
2023-03-07T02:05:37.918Z,16.52
2023-03-07T02:08:08.409Z,19.20
2023-03-07T02:10:37.042Z,18.40
2023-03-07T02:13:04.708Z,19.67
2023-03-07T02:15:34.494Z,19.50
2023-03-07T02:18:02.939Z,20.48
2023-03-07T02:20:35.656Z,16.67
2023-03-07T02:23:04.192Z,19.10
2023-03-07T02:25:36.206Z,22.27
2023-03-07T02:28:05.980Z,19.42
2023-03-07T02:30:33.638Z,16.20
2023-03-07T02:33:01.242Z,19.67
2023-03-07T02:35:29.005Z,26.20
2023-03-07T02:37:58.318Z,19.98
2023-03-07T02:40:27.762Z,19.17
2023-03-07T02:42:57.061Z,18.45
2023-03-07T02:45:26.030Z,17.95
2023-03-07T02:47:53.863Z,21.20
2023-03-07T02:50:21.649Z,11.43
2023-03-07T02:52:49.705Z,20.20
2023-03-07T02:55:17.466Z,23.00
2023-03-07T02:57:45.082Z,19.98
2023-03-07T03:00:14.118Z,18.33
2023-03-07T03:02:43.105Z,19.55
2023-03-07T03:05:10.741Z,30.88
2023-03-07T03:07:38.490Z,14.45
2023-03-07T03:10:06.728Z,18.58
2023-03-07T03:12:36.688Z,13.85
2023-03-07T03:15:07.937Z,15.30
2023-03-07T03:17:35.563Z,23.08
2023-03-07T03:20:07.564Z,14.48
2023-03-07T03:22:35.329Z,17.48
2023-03-07T03:25:04.959Z,15.70
2023-03-07T03:27:33.057Z,16.10
2023-03-07T03:30:00.752Z,16.55
2023-03-07T03:32:28.433Z,22.52
2023-03-07T03:34:56.550Z,17.10
2023-03-07T03:37:25.571Z,19.33
2023-03-07T03:39:53.837Z,21.13
2023-03-07T03:42:21.532Z,17.38
2023-03-07T03:44:49.798Z,17.42
2023-03-07T03:47:17.672Z,19.90
2023-03-07T03:49:45.606Z,18.83
2023-03-07T03:52:13.208Z,14.43
2023-03-07T03:54:42.193Z,18.52
2023-03-07T03:57:12.818Z,17.63
2023-03-07T03:59:40.568Z,16.48
2023-03-07T04:02:08.336Z,16.70
2023-03-07T04:04:36.595Z,12.38
2023-03-07T04:07:04.734Z,13.43
2023-03-07T04:09:32.567Z,14.98
2023-03-07T04:12:01.687Z,16.25
2023-03-07T04:14:29.286Z,18.35
2023-03-07T04:16:57.276Z,16.10
2023-03-07T04:19:24.875Z,23.13
2023-03-07T04:21:52.533Z,16.83
2023-03-07T04:24:20.145Z,15.77
2023-03-07T04:26:47.734Z,21.95
2023-03-07T04:29:16.917Z,16.35
2023-03-07T04:31:44.627Z,17.30
2023-03-07T04:34:12.392Z,15.02
2023-03-07T04:36:40.800Z,13.00
2023-03-07T04:39:08.533Z,16.92
2023-03-07T04:41:36.156Z,15.73
2023-03-07T04:44:03.825Z,12.52
2023-03-07T04:46:32.796Z,17.80
2023-03-07T04:49:00.530Z,14.65
2023-03-07T04:51:28.184Z,13.43
2023-03-07T04:53:55.855Z,17.05
2023-03-07T04:56:26.151Z,15.15
2023-03-07T04:58:53.770Z,17.70
2023-03-07T05:01:21.508Z,12.57
2023-03-07T05:03:50.530Z,13.98
2023-03-07T05:06:18.362Z,13.45
2023-03-07T05:08:45.930Z,13.43
2023-03-07T05:11:13.651Z,18.13
2023-03-07T05:13:41.702Z,13.45
2023-03-07T05:16:09.822Z,14.18
2023-03-07T05:18:37.649Z,17.02
2023-03-07T05:21:06.792Z,26.35
2023-03-07T05:23:34.445Z,17.50
2023-03-07T05:26:02.070Z,18.80
2023-03-07T05:28:29.902Z,23.25
2023-03-07T05:30:57.610Z,17.13
2023-03-07T05:33:26.794Z,17.42
2023-03-07T05:35:55.647Z,20.52
2023-03-07T05:38:24.682Z,17.05
2023-03-07T05:40:52.289Z,14.32
2023-03-07T05:43:20.524Z,15.70
2023-03-07T05:45:48.203Z,20.58
2023-03-07T05:48:15.798Z,14.38
2023-03-07T05:50:43.810Z,16.27
2023-03-07T05:53:11.434Z,12.30
2023-03-07T05:55:40.561Z,22.58
2023-03-07T05:58:08.232Z,19.35
2023-03-07T06:00:35.869Z,18.02
2023-03-07T06:03:04.117Z,17.73
2023-03-07T06:05:31.970Z,17.38
2023-03-07T06:07:59.613Z,17.58
2023-03-07T06:10:27.217Z,18.05
2023-03-07T06:12:57.156Z,14.55
2023-03-07T06:15:25.154Z,25.00
2023-03-07T06:17:53.667Z,16.85
2023-03-07T06:20:21.899Z,18.30
2023-03-07T06:22:49.662Z,18.52
2023-03-07T06:25:17.483Z,15.32
2023-03-07T06:27:45.132Z,16.83
2023-03-07T06:30:14.789Z,14.75
2023-03-07T06:32:42.634Z,21.17
2023-03-07T06:35:10.853Z,19.35
2023-03-07T06:37:38.613Z,18.48
2023-03-07T06:40:09.348Z,18.10
2023-03-07T06:42:37.012Z,17.17
2023-03-07T06:45:05.257Z,17.58
2023-03-07T06:47:34.410Z,25.42
2023-03-07T06:50:02.339Z,17.58
2023-03-07T06:52:30.199Z,17.67
2023-03-07T06:54:58.362Z,23.85
2023-03-07T06:57:26.107Z,13.77
2023-03-07T06:59:53.720Z,20.58
2023-03-07T07:02:21.703Z,17.58
2023-03-07T07:04:50.842Z,21.95
2023-03-07T07:07:18.580Z,14.32
2023-03-07T07:09:46.349Z,17.80
2023-03-07T07:12:13.929Z,22.25
2023-03-07T07:14:42.361Z,14.55
2023-03-07T07:17:10.209Z,14.57
2023-03-07T07:19:37.830Z,14.07
2023-03-07T07:22:08.688Z,9.23
2023-03-07T07:24:36.397Z,11.57
2023-03-07T07:27:04.120Z,12.13
2023-03-07T07:29:31.751Z,11.02
2023-03-07T07:31:59.531Z,8.63
2023-03-07T07:34:27.250Z,11.23
2023-03-07T07:36:54.897Z,8.70
2023-03-07T07:39:24.717Z,8.23
2023-03-07T07:41:52.319Z,9.65
2023-03-07T07:44:20.048Z,8.70
2023-03-07T07:46:47.655Z,13.15
2023-03-07T07:49:16.658Z,12.57
2023-03-07T07:51:46.011Z,9.35
2023-03-07T07:54:13.640Z,10.05
2023-03-07T07:56:43.213Z,13.05
2023-03-07T07:59:10.828Z,9.68
2023-03-07T08:01:38.502Z,7.50
2023-03-07T08:04:06.231Z,7.88
2023-03-07T08:06:33.980Z,7.72
2023-03-07T08:09:01.642Z,10.25
2023-03-07T08:11:29.366Z,8.82
2023-03-07T08:13:58.365Z,10.65
2023-03-07T08:16:26.175Z,9.13
2023-03-07T08:18:54.514Z,8.82
2023-03-07T08:21:22.308Z,10.50
2023-03-07T08:23:49.955Z,10.18
2023-03-07T08:26:17.766Z,7.60
2023-03-07T08:28:45.788Z,11.82
2023-03-07T08:31:16.110Z,5.20
2023-03-07T08:33:44.312Z,3.85
2023-03-07T08:36:12.084Z,6.13
2023-03-07T08:38:39.717Z,7.68
2023-03-07T08:41:08.179Z,5.30
2023-03-07T08:43:37.879Z,4.38
2023-03-07T08:46:06.058Z,3.83
2023-03-07T08:48:35.383Z,4.43
2023-03-07T08:51:07.183Z,3.40
2023-03-07T08:53:34.978Z,5.60
2023-03-07T08:56:06.459Z,3.70
2023-03-07T08:58:34.109Z,3.83
2023-03-07T09:01:01.768Z,7.13
2023-03-07T09:03:29.406Z,7.20
2023-03-07T09:05:58.426Z,4.40
2023-03-07T09:08:26.098Z,8.90
2023-03-07T09:10:53.761Z,4.75
2023-03-07T09:13:21.472Z,5.78
2023-03-07T09:15:49.199Z,5.15
2023-03-07T09:18:16.809Z,5.50
2023-03-07T09:20:44.577Z,8.27
2023-03-07T09:23:13.538Z,5.63
2023-03-07T09:25:41.149Z,6.97
2023-03-07T09:28:08.753Z,7.55
2023-03-07T09:30:36.382Z,5.38
2023-03-07T09:33:07.762Z,3.03
2023-03-07T09:35:35.625Z,5.57
2023-03-07T09:38:03.300Z,5.53
2023-03-07T09:40:32.447Z,3.17
2023-03-07T09:43:05.078Z,4.88
2023-03-07T09:45:38.967Z,4.40
2023-03-07T09:48:34.119Z,5.13
2023-03-07T09:51:11.580Z,8.23
2023-03-07T09:53:42.603Z,9.40
2023-03-07T09:56:14.239Z,6.07
2023-03-07T09:58:44.205Z,8.10
2023-03-07T10:01:13.394Z,6.25
2023-03-07T10:03:45.405Z,8.68
2023-03-07T10:06:15.508Z,7.88
2023-03-07T10:08:43.625Z,9.90
2023-03-07T10:11:24.655Z,9.30
2023-03-07T10:14:01.714Z,8.73
2023-03-07T10:16:32.490Z,8.32
2023-03-07T10:19:03.619Z,7.22
2023-03-07T10:21:36.702Z,5.07
2023-03-07T10:24:15.745Z,6.85
2023-03-07T10:26:50.098Z,6.63
2023-03-07T10:29:25.259Z,7.03
2023-03-07T10:31:56.063Z,8.82
2023-03-07T10:34:27.543Z,8.77
2023-03-07T10:37:08.367Z,7.63
2023-03-07T10:39:40.698Z,5.25
2023-03-07T10:42:11.970Z,6.72
2023-03-07T10:44:39.983Z,4.53
2023-03-07T10:47:07.736Z,6.65
2023-03-07T10:49:37.961Z,8.43
2023-03-07T10:52:07.503Z,6.78
2023-03-07T10:54:35.860Z,8.20
2023-03-07T10:57:04.630Z,9.13
2023-03-07T10:59:33.786Z,9.65
2023-03-07T11:02:02.205Z,7.65
2023-03-07T11:04:30.802Z,9.02
2023-03-07T11:06:59.501Z,9.00
2023-03-07T11:09:28.878Z,9.57
2023-03-07T11:11:57.836Z,8.88
2023-03-07T11:14:25.932Z,7.95
2023-03-07T11:16:56.990Z,7.45
2023-03-07T11:19:35.932Z,10.52
2023-03-07T11:22:05.066Z,10.38
2023-03-07T11:24:34.791Z,9.38
2023-03-07T11:27:02.420Z,10.77
2023-03-07T11:29:31.028Z,11.15
2023-03-07T11:32:05.847Z,9.07
2023-03-07T11:34:37.875Z,6.35
2023-03-07T11:37:15.187Z,6.35
2023-03-07T11:39:45.629Z,7.75
2023-03-07T11:42:16.825Z,4.82
2023-03-07T11:44:49.274Z,7.90
2023-03-07T11:47:27.326Z,8.23
2023-03-07T11:50:02.007Z,10.02
2023-03-07T11:52:38.602Z,15.95
2023-03-07T11:55:16.620Z,16.23
2023-03-07T11:57:51.150Z,14.63
2023-03-07T12:00:24.497Z,4.53
2023-03-07T12:02:58.217Z,11.52
2023-03-07T12:05:39.349Z,5.75
2023-03-07T12:08:14.315Z,5.82
2023-03-07T12:10:49.550Z,4.90
2023-03-07T12:13:25.293Z,5.70
2023-03-07T12:15:57.317Z,6.35
2023-03-07T12:18:35.650Z,9.13
2023-03-07T12:21:10.268Z,4.63
2023-03-07T12:23:39.350Z,4.30
2023-03-07T12:26:11.695Z,4.78
2023-03-07T12:28:44.033Z,4.97
2023-03-07T12:31:12.469Z,3.63
2023-03-07T12:33:57.733Z,3.72
2023-03-07T12:36:28.673Z,4.22
2023-03-07T12:38:58.954Z,4.10
2023-03-07T12:41:31.681Z,3.00
2023-03-07T12:44:00.543Z,1.85
2023-03-07T12:46:31.513Z,2.22
2023-03-07T12:49:03.692Z,6.43
2023-03-07T12:51:33.886Z,2.15
2023-03-07T12:54:04.360Z,2.38
2023-03-07T12:56:33.987Z,2.25
2023-03-07T12:59:03.519Z,6.20
2023-03-07T13:01:33.100Z,2.90
2023-03-07T13:04:07.390Z,2.90
2023-03-07T13:06:37.367Z,2.67
2023-03-07T13:09:05.196Z,3.25
2023-03-07T13:11:34.005Z,2.63
2023-03-07T13:14:02.603Z,5.40
2023-03-07T13:16:43.921Z,3.30
2023-03-07T13:19:30.333Z,6.20
2023-03-07T13:21:59.444Z,5.68
2023-03-07T13:24:34.351Z,6.03
2023-03-07T13:27:02.216Z,9.20
2023-03-07T13:29:48.305Z,5.65
2023-03-07T13:32:30.861Z,5.70
2023-03-07T13:34:58.571Z,5.97
2023-03-07T13:37:52.595Z,7.43
2023-03-07T13:40:25.896Z,5.28
2023-03-07T13:42:53.767Z,6.32
2023-03-07T13:45:39.995Z,5.63
2023-03-07T13:48:11.901Z,4.22
2023-03-07T13:50:40.026Z,5.63
2023-03-07T13:53:12.778Z,5.82
2023-03-07T13:55:46.393Z,6.55
2023-03-07T13:58:23.881Z,4.70
2023-03-07T14:00:53.620Z,5.43
2023-03-07T14:03:27.891Z,5.60
2023-03-07T14:05:56.819Z,4.63
2023-03-07T14:08:26.629Z,6.55
2023-03-07T14:10:55.658Z,18.55
2023-03-07T14:13:41.012Z,6.93
2023-03-07T14:16:14.423Z,5.25
2023-03-07T14:18:49.492Z,6.97
2023-03-07T14:21:21.026Z,8.05
2023-03-07T14:23:56.722Z,8.30
2023-03-07T14:26:26.996Z,9.52
2023-03-07T14:28:58.984Z,9.52
2023-03-07T14:31:28.156Z,5.88
2023-03-07T14:33:56.172Z,4.30
2023-03-07T14:36:25.053Z,8.48
2023-03-07T14:38:55.712Z,6.30
2023-03-07T14:41:36.005Z,9.20
2023-03-07T14:44:08.424Z,4.47
2023-03-07T14:46:39.613Z,3.97
2023-03-07T14:49:10.261Z,7.47
2023-03-07T14:51:40.251Z,5.57
2023-03-07T14:54:12.283Z,3.33
2023-03-07T14:56:41.872Z,4.80
2023-03-07T14:59:26.091Z,3.33
2023-03-07T15:01:56.128Z,3.50
2023-03-07T15:04:25.122Z,4.63
2023-03-07T15:06:56.578Z,4.70
2023-03-07T15:09:24.372Z,3.45
2023-03-07T15:11:56.880Z,8.85
2023-03-07T15:14:35.631Z,4.53
2023-03-07T15:17:05.043Z,3.83
2023-03-07T15:19:37.102Z,3.22
2023-03-07T15:22:05.985Z,5.18
2023-03-07T15:24:35.168Z,3.70
2023-03-07T15:27:06.112Z,5.50
2023-03-07T15:29:34.898Z,3.60
2023-03-07T15:32:03.970Z,4.43
2023-03-07T15:34:33.578Z,4.90
2023-03-07T15:37:16.071Z,4.32
2023-03-07T15:39:43.686Z,3.22
2023-03-07T15:42:21.397Z,4.03
2023-03-07T15:44:54.400Z,3.75
2023-03-07T15:47:22.274Z,4.07
2023-03-07T15:49:50.743Z,5.30
2023-03-07T15:52:21.767Z,5.30
2023-03-07T15:54:51.241Z,5.63
2023-03-07T15:57:23.017Z,5.55
2023-03-07T15:59:52.465Z,4.85
2023-03-07T16:02:43.223Z,3.75
2023-03-07T16:05:29.281Z,10.30
2023-03-07T16:07:58.472Z,3.05
2023-03-07T16:10:27.539Z,6.43
2023-03-07T16:12:56.876Z,4.35
2023-03-07T16:15:24.972Z,2.60
2023-03-07T16:17:54.981Z,4.97
2023-03-07T16:20:24.001Z,3.60
2023-03-07T16:22:51.811Z,3.72
2023-03-07T16:25:20.595Z,5.30
2023-03-07T16:27:50.882Z,4.70
2023-03-07T16:30:20.896Z,3.55
2023-03-07T16:32:48.612Z,5.10
2023-03-07T16:35:16.825Z,6.60
2023-03-07T16:37:45.105Z,5.20
2023-03-07T16:40:14.294Z,16.23
2023-03-07T16:42:43.433Z,6.43
2023-03-07T16:45:18.509Z,6.80
2023-03-07T16:47:47.774Z,8.40
2023-03-07T16:50:16.820Z,5.88
2023-03-07T16:52:44.745Z,6.50
2023-03-07T16:55:13.737Z,10.32
2023-03-07T16:57:42.069Z,6.10
2023-03-07T17:00:15.320Z,5.78
2023-03-07T17:02:43.344Z,7.78
2023-03-07T17:05:18.327Z,6.60
2023-03-07T17:07:45.955Z,8.80
2023-03-07T17:10:14.173Z,7.65
2023-03-07T17:12:43.362Z,9.05
2023-03-07T17:15:12.918Z,5.03
2023-03-07T17:17:41.382Z,10.85
2023-03-07T17:20:12.980Z,9.35
2023-03-07T17:22:42.263Z,9.20
2023-03-07T17:25:10.613Z,11.48
2023-03-07T17:27:41.160Z,7.30
2023-03-07T17:30:11.648Z,8.93
2023-03-07T17:32:39.291Z,8.95
2023-03-07T17:35:09.988Z,10.45
2023-03-07T17:37:37.617Z,10.30
2023-03-07T17:40:10.132Z,9.40
2023-03-07T17:42:38.069Z,10.23
2023-03-07T17:45:06.163Z,6.82
2023-03-07T17:47:34.663Z,7.45
2023-03-07T17:50:03.193Z,7.20
2023-03-07T17:52:30.870Z,11.65
2023-03-07T17:54:58.496Z,8.52
2023-03-07T17:57:29.478Z,12.75
2023-03-07T17:59:57.283Z,11.00
2023-03-07T18:02:25.855Z,10.63
2023-03-07T18:04:53.714Z,26.25
2023-03-07T18:07:21.980Z,31.77
2023-03-07T18:09:56.070Z,28.55
2023-03-07T18:12:31.215Z,22.00
2023-03-07T18:14:58.844Z,15.57
2023-03-07T18:17:28.280Z,23.30
2023-03-07T18:19:59.080Z,11.48
2023-03-07T18:22:26.812Z,17.05
2023-03-07T18:24:54.502Z,25.30
2023-03-07T18:27:22.298Z,15.18
2023-03-07T18:29:51.317Z,11.73
2023-03-07T18:32:19.549Z,21.77
2023-03-07T18:34:47.494Z,28.20
2023-03-07T18:37:16.318Z,20.33
2023-03-07T18:39:44.022Z,17.10
2023-03-07T18:42:11.789Z,11.68
2023-03-07T18:44:39.975Z,17.48
2023-03-07T18:47:10.620Z,22.50
2023-03-07T18:49:39.206Z,20.48
2023-03-07T18:52:06.842Z,14.98
2023-03-07T18:54:34.526Z,20.23
2023-03-07T18:57:02.742Z,10.15
2023-03-07T18:59:30.464Z,13.05
2023-03-07T19:02:02.870Z,13.85
2023-03-07T19:04:33.090Z,15.43
2023-03-07T19:07:00.816Z,11.55
2023-03-07T19:09:30.120Z,15.23
2023-03-07T19:11:57.866Z,11.02
2023-03-07T19:14:26.408Z,11.43
2023-03-07T19:16:54.279Z,12.88
2023-03-07T19:19:22.935Z,13.05
2023-03-07T19:21:51.951Z,11.45
2023-03-07T19:24:19.610Z,13.55
2023-03-07T19:26:47.346Z,13.52
2023-03-07T19:29:15.009Z,14.30
2023-03-07T19:31:44.023Z,14.57
2023-03-07T19:34:12.062Z,10.98
2023-03-07T19:36:41.443Z,11.60
2023-03-07T19:39:15.240Z,12.02
2023-03-07T19:41:45.598Z,12.40
2023-03-07T19:44:13.210Z,10.32
2023-03-07T19:46:46.004Z,13.82
2023-03-07T19:49:13.646Z,12.60
2023-03-07T19:51:41.355Z,13.07
2023-03-07T19:54:09.879Z,13.00
2023-03-07T19:56:39.431Z,14.93
2023-03-07T19:59:08.282Z,11.63
2023-03-07T20:01:36.204Z,11.55
2023-03-07T20:04:04.906Z,12.15
2023-03-07T20:06:32.849Z,13.40
2023-03-07T20:09:01.448Z,15.23
2023-03-07T20:11:30.064Z,16.38
2023-03-07T20:14:04.690Z,12.80
2023-03-07T20:16:32.935Z,15.43
2023-03-07T20:19:01.574Z,12.85
2023-03-07T20:21:29.827Z,16.65
2023-03-07T20:23:59.704Z,12.85
2023-03-07T20:26:28.407Z,10.00
2023-03-07T20:28:56.899Z,14.95
2023-03-07T20:31:26.073Z,12.30
2023-03-07T20:33:55.320Z,14.80
2023-03-07T20:36:24.437Z,12.50
2023-03-07T20:38:52.854Z,10.85
2023-03-07T20:41:22.397Z,10.43
2023-03-07T20:43:51.004Z,12.52
2023-03-07T20:46:19.322Z,13.65
2023-03-07T20:48:48.557Z,13.32
2023-03-07T20:51:18.572Z,11.93
2023-03-07T20:53:46.441Z,11.65
2023-03-07T20:56:14.050Z,13.85
2023-03-07T20:58:43.008Z,11.80
2023-03-07T21:01:10.884Z,12.20
2023-03-07T21:03:38.744Z,14.60
2023-03-07T21:06:08.205Z,14.13
2023-03-07T21:08:37.025Z,13.55
2023-03-07T21:11:05.588Z,13.73
2023-03-07T21:13:34.922Z,11.25
2023-03-07T21:16:04.527Z,11.88
2023-03-07T21:18:32.348Z,13.55
2023-03-07T21:21:00.279Z,16.08
2023-03-07T21:23:30.331Z,15.25
2023-03-07T21:26:00.329Z,15.70
2023-03-07T21:28:27.998Z,18.05
2023-03-07T21:30:59.771Z,13.93
2023-03-07T21:33:27.399Z,14.63
2023-03-07T21:35:55.144Z,17.27
2023-03-07T21:38:22.762Z,17.52
2023-03-07T21:40:52.351Z,18.92
2023-03-07T21:43:20.039Z,15.57
2023-03-07T21:45:48.073Z,13.63
2023-03-07T21:48:16.994Z,13.80
2023-03-07T21:50:45.408Z,15.43
2023-03-07T21:53:13.556Z,13.48
2023-03-07T21:55:41.839Z,14.27
2023-03-07T21:58:10.997Z,11.90
2023-03-07T22:00:38.603Z,13.70
2023-03-07T22:03:06.347Z,16.98
2023-03-07T22:05:34.133Z,12.40
2023-03-07T22:08:01.956Z,14.88
2023-03-07T22:10:29.568Z,17.20
2023-03-07T22:12:57.375Z,13.98
2023-03-07T22:15:26.792Z,15.95
2023-03-07T22:17:54.543Z,15.02
2023-03-07T22:20:22.392Z,13.68
2023-03-07T22:22:52.513Z,15.98
2023-03-07T22:25:20.189Z,16.42
2023-03-07T22:27:47.851Z,18.35
2023-03-07T22:30:15.579Z,18.50
2023-03-07T22:32:46.377Z,13.32
2023-03-07T22:35:14.181Z,16.55
2023-03-07T22:37:42.408Z,20.67
2023-03-07T22:40:10.597Z,14.30
2023-03-07T22:42:38.596Z,22.58
2023-03-07T22:45:06.766Z,20.60
2023-03-07T22:47:34.853Z,17.85
2023-03-07T22:50:04.522Z,20.17
2023-03-07T22:52:32.195Z,19.60
2023-03-07T22:54:59.845Z,20.80
2023-03-07T22:57:27.508Z,16.73
2023-03-07T22:59:55.291Z,18.17
2023-03-07T23:02:22.911Z,23.85
2023-03-07T23:04:52.042Z,20.15
2023-03-07T23:07:21.226Z,22.27
2023-03-07T23:09:48.964Z,19.17
2023-03-07T23:12:16.685Z,20.63
2023-03-07T23:14:44.686Z,21.63
2023-03-07T23:17:12.453Z,20.45
2023-03-07T23:19:40.102Z,14.00
2023-03-07T23:22:07.958Z,23.98
2023-03-07T23:24:36.977Z,20.58
2023-03-07T23:27:04.774Z,18.05
2023-03-07T23:29:32.709Z,14.55
2023-03-07T23:32:03.554Z,18.98
2023-03-07T23:34:31.532Z,20.17
2023-03-07T23:36:59.378Z,21.83
2023-03-07T23:39:29.381Z,20.35
2023-03-07T23:41:58.380Z,15.63
2023-03-07T23:44:26.512Z,19.98
2023-03-07T23:46:54.136Z,24.42
2023-03-07T23:49:21.744Z,21.27
2023-03-07T23:51:49.364Z,21.83
2023-03-07T23:54:17.036Z,20.05
2023-03-07T23:56:45.538Z,20.70
2023-03-07T23:59:14.506Z,18.80
